Hovedside
METAR-TAF:

METAR-TAF

Lufthavner :

Alta, Norge

Alta lufthavn

breddegrad: 69-59N, lengdegrad: 023-22E, høyde over havet: 0 m

Gjeldene værobservasjon

Denne rapporten ble laget for 1 time og 4 minutter siden, klokken 12:50 UTC
Vind 5 kt fra Sør
Temperatur -11°C
Luftfuktighet 56%
Trykk 1047 hPa
Sikt 10 km eller mer
ingen skyer under 1500 m og ingen bygeskyer

METAR: ENAT 251250Z 17005KT CAVOK M11/M18 Q1047 RMK WIND 700FT 15011KT

Tid: 14:54 (13:54 UTC)

Varsel

Denne rapporten ble laget for 2 timer og 54 minutter siden, klokken 11:00 UTC
Varsel gyldig fra 25. klokken 12 UTC til 25. klokken 21 UTC
Vind 5 kt fra Sør
Sikt 10 km eller mer
ingen skyer under 1500 m og ingen bygeskyer

TAF: ENAT 251100Z 2512/2521 18005KT CAVOK

Værobservasjoner og værvarsel for over 4000 flyplasser (METAR- og TAF-rapporter).

Tilgjengelige stasjoner er representert av de røde og gule prikkene på kartet.

Hold musepekeren over prikken for å se navnet på stasjonen.

Klikk så for å se værobservasjoner og -varsler.

For å forandre kartet kan du klikke på den grønne knappen med svart kryss for å zoome inn, på den grønne knappen med strek for å zoome ut, eller på de grønne pilene for å se tilstøtende kart.


METAR-TAF: